createdAt,value
2022-10-04T00:00:12.462Z,99.99
2022-10-04T00:01:12.465Z,99.99
2022-10-04T00:02:12.575Z,99.99
2022-10-04T00:03:12.673Z,99.99
2022-10-04T00:04:12.474Z,99.99
2022-10-04T00:05:12.471Z,99.99
2022-10-04T00:06:15.565Z,99.99
2022-10-04T00:07:12.484Z,99.99
2022-10-04T00:08:12.500Z,99.99
2022-10-04T00:09:12.479Z,99.99
2022-10-04T00:10:12.483Z,99.99
2022-10-04T00:11:12.483Z,99.99
2022-10-04T00:12:12.479Z,99.99
2022-10-04T00:13:12.511Z,99.99
2022-10-04T00:14:12.479Z,99.99
2022-10-04T00:15:12.491Z,99.99
2022-10-04T00:16:12.593Z,99.99
2022-10-04T00:17:15.506Z,99.99
2022-10-04T00:18:12.492Z,99.99
2022-10-04T00:19:12.491Z,99.99
2022-10-04T00:20:12.498Z,99.99
2022-10-04T00:21:12.497Z,99.99
2022-10-04T00:22:12.518Z,99.99
2022-10-04T00:23:12.517Z,99.99
2022-10-04T00:24:12.550Z,99.99
2022-10-04T00:25:12.507Z,99.99
2022-10-04T00:26:12.502Z,99.99
2022-10-04T00:27:12.519Z,99.99
2022-10-04T00:28:15.728Z,99.99
2022-10-04T00:29:12.537Z,99.99
2022-10-04T00:30:12.515Z,99.99
2022-10-04T00:31:12.671Z,99.99
2022-10-04T00:32:12.515Z,99.99
2022-10-04T00:33:12.554Z,99.99
2022-10-04T00:34:12.521Z,99.99
2022-10-04T00:35:12.532Z,99.99
2022-10-04T00:36:12.522Z,99.99
2022-10-04T00:37:12.541Z,99.99
2022-10-04T00:38:12.535Z,99.99
2022-10-04T00:39:12.520Z,99.99
2022-10-04T00:40:12.745Z,99.99
2022-10-04T00:41:12.522Z,99.99
2022-10-04T00:42:12.527Z,99.99
2022-10-04T00:43:12.546Z,99.99
2022-10-04T00:44:12.538Z,99.99
2022-10-04T00:45:12.554Z,99.99
2022-10-04T00:46:12.646Z,99.99
2022-10-04T00:47:12.534Z,99.99
2022-10-04T00:48:12.674Z,99.99
2022-10-04T00:49:12.542Z,99.99
2022-10-04T00:50:12.540Z,99.99
2022-10-04T00:51:12.533Z,99.99
2022-10-04T00:52:12.542Z,99.99
2022-10-04T00:53:12.561Z,99.99
2022-10-04T00:54:12.541Z,99.99
2022-10-04T00:55:12.543Z,99.99
2022-10-04T00:56:12.576Z,99.99
2022-10-04T00:57:12.560Z,99.99
2022-10-04T00:58:12.566Z,99.99
2022-10-04T00:59:12.572Z,99.99
2022-10-04T01:00:12.550Z,99.99
2022-10-04T01:01:12.738Z,99.99
2022-10-04T01:02:12.643Z,99.99
2022-10-04T01:03:12.592Z,99.99
2022-10-04T01:04:12.560Z,99.99
2022-10-04T01:05:12.554Z,99.99
2022-10-04T01:06:12.558Z,99.99
2022-10-04T01:07:12.566Z,99.99
2022-10-04T01:08:12.583Z,99.99
2022-10-04T01:09:12.582Z,99.99
2022-10-04T01:10:12.627Z,99.99
2022-10-04T01:11:15.702Z,99.99
2022-10-04T01:12:12.574Z,99.99
2022-10-04T01:13:12.597Z,99.99
2022-10-04T01:14:12.580Z,99.99
2022-10-04T01:15:12.577Z,99.99
2022-10-04T01:16:12.744Z,99.99
2022-10-04T01:17:12.601Z,99.99
2022-10-04T01:18:12.596Z,99.99
2022-10-04T01:19:12.586Z,99.99
2022-10-04T01:20:12.582Z,99.99
2022-10-04T01:21:12.597Z,99.99
2022-10-04T01:22:15.437Z,99.99
2022-10-04T01:23:12.598Z,99.99
2022-10-04T01:24:12.589Z,99.99
2022-10-04T01:25:12.585Z,99.99
2022-10-04T01:26:12.591Z,99.99
2022-10-04T01:27:12.609Z,99.99
2022-10-04T01:28:12.743Z,99.99
2022-10-04T01:29:12.681Z,99.99
2022-10-04T01:30:12.727Z,99.99
2022-10-04T01:31:12.727Z,99.99
2022-10-04T01:32:12.606Z,99.99
2022-10-04T01:33:15.652Z,99.99
2022-10-04T01:34:12.637Z,99.99
2022-10-04T01:35:12.597Z,99.99
2022-10-04T01:36:12.606Z,99.99
2022-10-04T01:37:12.603Z,99.99
2022-10-04T01:38:12.623Z,99.99
2022-10-04T01:39:12.663Z,99.99
2022-10-04T01:40:12.647Z,99.99
2022-10-04T01:41:12.626Z,99.99
2022-10-04T01:42:12.623Z,99.99
2022-10-04T01:43:12.694Z,99.99
2022-10-04T01:44:12.617Z,99.99
2022-10-04T01:45:12.628Z,99.99
2022-10-04T01:46:12.715Z,99.99
2022-10-04T01:47:12.629Z,99.99
2022-10-04T01:48:12.636Z,99.99
2022-10-04T01:49:15.747Z,99.99
2022-10-04T01:50:17.825Z,99.99
2022-10-04T01:51:12.627Z,99.99
2022-10-04T01:52:12.628Z,99.99
2022-10-04T01:53:12.658Z,99.99
2022-10-04T01:54:12.624Z,99.99
2022-10-04T01:55:12.628Z,99.99
2022-10-04T01:56:12.770Z,99.99
2022-10-04T01:57:12.627Z,99.99
2022-10-04T01:58:12.650Z,99.99
2022-10-04T01:59:12.666Z,99.99
2022-10-04T02:00:15.759Z,99.99
2022-10-04T02:01:12.756Z,99.99
2022-10-04T02:02:12.641Z,99.99
2022-10-04T02:03:12.654Z,99.99
2022-10-04T02:04:12.818Z,99.99
2022-10-04T02:05:12.668Z,99.99
2022-10-04T02:06:12.649Z,99.99
2022-10-04T02:07:12.656Z,99.99
2022-10-04T02:08:12.669Z,99.99
2022-10-04T02:09:12.651Z,99.99
2022-10-04T02:10:12.651Z,99.99
2022-10-04T02:11:13.761Z,99.99
2022-10-04T02:12:12.685Z,99.99
2022-10-04T02:13:12.672Z,99.99
2022-10-04T02:14:12.674Z,99.99
2022-10-04T02:15:12.698Z,99.99
2022-10-04T02:16:12.669Z,99.99
2022-10-04T02:17:12.795Z,99.99
2022-10-04T02:18:12.715Z,99.99
2022-10-04T02:19:12.664Z,99.99
2022-10-04T02:20:12.662Z,99.99
2022-10-04T02:21:12.693Z,99.99
2022-10-04T02:22:15.677Z,99.99
2022-10-04T02:23:12.713Z,99.99
2022-10-04T02:24:12.708Z,99.99
2022-10-04T02:25:12.675Z,99.99
2022-10-04T02:26:12.681Z,99.99
2022-10-04T02:27:15.412Z,99.99
2022-10-04T02:28:12.848Z,99.99
2022-10-04T02:29:12.691Z,99.99
2022-10-04T02:30:12.689Z,99.99
2022-10-04T02:31:15.695Z,99.99
2022-10-04T02:32:12.699Z,99.99
2022-10-04T02:33:16.511Z,99.99
2022-10-04T02:34:12.685Z,99.99
2022-10-04T02:35:12.689Z,99.99
2022-10-04T02:36:12.698Z,99.99
2022-10-04T02:37:12.734Z,99.99
2022-10-04T02:38:12.710Z,99.99
2022-10-04T02:39:12.696Z,99.99
2022-10-04T02:40:12.726Z,99.99
2022-10-04T02:41:12.691Z,99.99
2022-10-04T02:42:12.721Z,99.99
2022-10-04T02:43:12.718Z,99.99
2022-10-04T02:44:15.567Z,99.99
2022-10-04T02:45:12.733Z,99.99
2022-10-04T02:46:12.835Z,99.99
2022-10-04T02:47:12.744Z,99.99
2022-10-04T02:48:12.734Z,99.99
2022-10-04T02:49:12.708Z,99.99
2022-10-04T02:50:12.711Z,99.99
2022-10-04T02:51:12.732Z,99.99
2022-10-04T02:52:12.708Z,99.99
2022-10-04T02:53:12.747Z,99.99
2022-10-04T02:54:12.719Z,99.99
2022-10-04T02:55:15.508Z,99.99
2022-10-04T02:56:12.714Z,99.99
2022-10-04T02:57:12.720Z,99.99
2022-10-04T02:58:12.753Z,99.99
2022-10-04T02:59:12.722Z,99.99
2022-10-04T03:00:12.721Z,99.99
2022-10-04T03:01:12.872Z,99.99
2022-10-04T03:02:12.794Z,99.99
2022-10-04T03:03:12.766Z,99.99
2022-10-04T03:04:12.740Z,99.99
2022-10-04T03:05:12.726Z,99.99
2022-10-04T03:06:12.730Z,99.99
2022-10-04T03:07:12.728Z,99.99
2022-10-04T03:08:12.766Z,99.99
2022-10-04T03:09:12.759Z,99.99
2022-10-04T03:10:12.745Z,99.99
2022-10-04T03:11:12.737Z,99.99
2022-10-04T03:12:12.736Z,99.99
2022-10-04T03:13:12.803Z,99.99
2022-10-04T03:14:12.733Z,99.99
2022-10-04T03:15:12.834Z,99.99
2022-10-04T03:16:12.911Z,99.99
2022-10-04T03:17:12.750Z,99.99
2022-10-04T03:18:12.777Z,99.99
2022-10-04T03:19:12.770Z,99.99
2022-10-04T03:20:15.779Z,99.99
2022-10-04T03:21:12.751Z,99.99
2022-10-04T03:22:12.749Z,99.99
2022-10-04T03:23:12.769Z,99.99
2022-10-04T03:24:12.747Z,99.99
2022-10-04T03:25:12.845Z,99.99
2022-10-04T03:26:12.886Z,99.99
2022-10-04T03:27:12.759Z,99.99
2022-10-04T03:28:12.951Z,99.99
2022-10-04T03:29:12.758Z,99.99
2022-10-04T03:30:12.763Z,99.99
2022-10-04T03:31:12.881Z,99.99
2022-10-04T03:32:12.765Z,99.99
2022-10-04T03:33:12.792Z,99.99
2022-10-04T03:34:12.770Z,99.99
2022-10-04T03:35:12.790Z,99.99
2022-10-04T03:36:12.773Z,99.99
2022-10-04T03:37:12.777Z,99.99
2022-10-04T03:38:15.818Z,99.99
2022-10-04T03:39:12.774Z,99.99
2022-10-04T03:40:12.771Z,99.99
2022-10-04T03:41:12.805Z,99.99
2022-10-04T03:42:12.773Z,99.99
2022-10-04T03:43:12.826Z,99.99
2022-10-04T03:44:12.780Z,99.99
2022-10-04T03:45:12.792Z,99.99
2022-10-04T03:46:12.899Z,99.99
2022-10-04T03:47:12.781Z,99.99
2022-10-04T03:48:12.801Z,99.99
2022-10-04T03:49:15.571Z,99.99
2022-10-04T03:50:12.795Z,99.99
2022-10-04T03:51:12.805Z,99.99
2022-10-04T03:52:12.789Z,99.99
2022-10-04T03:53:12.810Z,99.99
2022-10-04T03:54:12.789Z,99.99
2022-10-04T03:55:12.801Z,99.99
2022-10-04T03:56:12.802Z,99.99
2022-10-04T03:57:12.820Z,99.99
2022-10-04T03:58:12.819Z,99.99
2022-10-04T03:59:12.812Z,99.99
2022-10-04T04:00:15.592Z,99.99
2022-10-04T04:01:12.970Z,99.99
2022-10-04T04:02:12.973Z,99.99
2022-10-04T04:03:12.831Z,99.99
2022-10-04T04:04:12.820Z,99.99
2022-10-04T04:05:12.807Z,99.99
2022-10-04T04:06:12.810Z,99.99
2022-10-04T04:07:12.849Z,99.99
2022-10-04T04:08:12.844Z,99.99
2022-10-04T04:09:12.645Z,99.99
2022-10-04T04:10:18.297Z,99.99
2022-10-04T04:11:12.814Z,99.99
2022-10-04T04:12:12.826Z,99.99
2022-10-04T04:13:12.860Z,99.99
2022-10-04T04:14:12.840Z,99.99
2022-10-04T04:15:12.688Z,99.99
2022-10-04T04:16:12.954Z,99.99
2022-10-04T04:17:12.852Z,99.99
2022-10-04T04:18:12.847Z,99.99
2022-10-04T04:19:12.849Z,99.99
2022-10-04T04:20:12.894Z,99.99
2022-10-04T04:21:12.839Z,99.99
2022-10-04T04:22:12.847Z,99.99
2022-10-04T04:23:13.002Z,99.99
2022-10-04T04:24:12.842Z,99.99
2022-10-04T04:25:12.845Z,99.99
2022-10-04T04:26:12.856Z,99.99
2022-10-04T04:27:15.842Z,99.99
2022-10-04T04:28:13.177Z,99.99
2022-10-04T04:29:12.962Z,99.99
2022-10-04T04:30:12.842Z,99.99
2022-10-04T04:31:12.933Z,99.99
2022-10-04T04:32:16.970Z,99.99
2022-10-04T04:33:12.862Z,99.99
2022-10-04T04:34:12.867Z,99.99
2022-10-04T04:35:12.843Z,99.99
2022-10-04T04:36:12.859Z,99.99
2022-10-04T04:37:12.845Z,99.99
2022-10-04T04:38:14.595Z,99.99
2022-10-04T04:39:12.871Z,99.99
2022-10-04T04:40:12.853Z,99.99
2022-10-04T04:41:12.686Z,99.99
2022-10-04T04:42:13.001Z,99.99
2022-10-04T04:43:12.904Z,99.99
2022-10-04T04:44:12.863Z,99.99
2022-10-04T04:45:12.886Z,99.99
2022-10-04T04:46:29.351Z,99.99
2022-10-04T04:47:16.326Z,99.99
2022-10-04T04:48:12.879Z,99.99
2022-10-04T04:49:15.941Z,99.99
2022-10-04T04:50:12.874Z,99.99
2022-10-04T04:51:12.899Z,99.99
2022-10-04T04:52:12.868Z,99.99
2022-10-04T04:53:12.920Z,99.99
2022-10-04T04:54:13.025Z,99.99
2022-10-04T04:55:12.878Z,99.99
2022-10-04T04:56:18.147Z,99.99
2022-10-04T04:57:12.887Z,99.99
2022-10-04T04:58:12.918Z,99.99
2022-10-04T04:59:12.883Z,99.99
2022-10-04T05:00:15.955Z,99.99
2022-10-04T05:01:13.090Z,99.99
2022-10-04T05:02:13.011Z,99.99
2022-10-04T05:03:12.950Z,99.99
2022-10-04T05:04:12.885Z,99.99
2022-10-04T05:05:12.892Z,99.99
2022-10-04T05:06:12.893Z,99.99
2022-10-04T05:07:12.895Z,99.99
2022-10-04T05:08:12.910Z,99.99
2022-10-04T05:09:12.898Z,99.99
2022-10-04T05:10:12.927Z,99.99
2022-10-04T05:11:15.765Z,99.99
2022-10-04T05:12:12.899Z,99.99
2022-10-04T05:13:12.931Z,99.99
2022-10-04T05:14:12.901Z,99.99
2022-10-04T05:15:15.281Z,99.99
2022-10-04T05:16:13.103Z,99.99
2022-10-04T05:17:12.912Z,99.99
2022-10-04T05:18:12.930Z,99.99
2022-10-04T05:19:12.917Z,99.99
2022-10-04T05:20:12.990Z,99.99
2022-10-04T05:21:12.924Z,99.99
2022-10-04T05:22:13.987Z,99.99
2022-10-04T05:23:12.927Z,99.99
2022-10-04T05:24:12.946Z,99.99
2022-10-04T05:25:12.915Z,99.99
2022-10-04T05:26:12.996Z,99.99
2022-10-04T05:27:12.912Z,99.99
2022-10-04T05:28:13.067Z,99.99
2022-10-04T05:29:12.923Z,99.99
2022-10-04T05:30:12.950Z,99.99
2022-10-04T05:31:12.967Z,99.99
2022-10-04T05:32:13.208Z,99.99
2022-10-04T05:33:12.943Z,99.99
2022-10-04T05:34:12.938Z,99.99
2022-10-04T05:35:12.934Z,99.99
2022-10-04T05:36:12.951Z,99.99
2022-10-04T05:37:12.933Z,99.99
2022-10-04T05:38:12.975Z,99.99
2022-10-04T05:39:12.934Z,99.99
2022-10-04T05:40:12.973Z,99.99
2022-10-04T05:41:12.932Z,99.99
2022-10-04T05:42:13.051Z,99.99
2022-10-04T05:43:12.956Z,99.99
2022-10-04T05:44:12.963Z,99.99
2022-10-04T05:45:12.954Z,99.99
2022-10-04T05:46:13.058Z,99.99
2022-10-04T05:47:12.947Z,99.99
2022-10-04T05:48:13.004Z,99.99
2022-10-04T05:49:19.066Z,99.99
2022-10-04T05:50:12.949Z,99.99
2022-10-04T05:51:12.952Z,99.99
2022-10-04T05:52:12.954Z,99.99
2022-10-04T05:53:13.175Z,99.99
2022-10-04T05:54:12.958Z,99.99
2022-10-04T05:55:13.014Z,99.99
2022-10-04T05:56:12.973Z,99.99
2022-10-04T05:57:12.984Z,99.99
2022-10-04T05:58:13.008Z,99.99
2022-10-04T05:59:12.961Z,99.99
2022-10-04T06:00:12.963Z,99.99
2022-10-04T06:01:13.172Z,99.99
2022-10-04T06:02:13.086Z,99.99
2022-10-04T06:03:12.987Z,99.99
2022-10-04T06:04:13.075Z,99.99
2022-10-04T06:05:15.822Z,99.99
2022-10-04T06:06:12.976Z,99.99
2022-10-04T06:07:13.004Z,99.99
2022-10-04T06:08:12.994Z,99.99
2022-10-04T06:09:12.976Z,99.99
2022-10-04T06:10:12.974Z,99.99
2022-10-04T06:11:12.976Z,99.99
2022-10-04T06:12:12.984Z,99.99
2022-10-04T06:13:12.997Z,99.99
2022-10-04T06:14:13.018Z,99.99
2022-10-04T06:15:12.978Z,99.99
2022-10-04T06:16:16.066Z,99.99
2022-10-04T06:17:12.990Z,99.99
2022-10-04T06:18:13.002Z,99.99
2022-10-04T06:19:12.992Z,99.99
2022-10-04T06:20:13.112Z,99.99
2022-10-04T06:21:12.994Z,99.99
2022-10-04T06:22:12.996Z,99.99
2022-10-04T06:23:13.013Z,99.99
2022-10-04T06:24:12.994Z,99.99
2022-10-04T06:25:12.995Z,99.99
2022-10-04T06:26:13.000Z,99.99
2022-10-04T06:27:13.023Z,99.99
2022-10-04T06:28:13.174Z,99.99
2022-10-04T06:29:13.065Z,99.99
2022-10-04T06:30:16.090Z,99.99
2022-10-04T06:31:13.152Z,99.99
2022-10-04T06:32:13.007Z,99.99
2022-10-04T06:33:13.026Z,99.99
2022-10-04T06:34:13.032Z,99.99
2022-10-04T06:35:13.023Z,99.99
2022-10-04T06:36:13.040Z,99.99
2022-10-04T06:37:13.020Z,99.99
2022-10-04T06:38:13.054Z,99.99
2022-10-04T06:39:13.024Z,99.99
2022-10-04T06:40:13.027Z,99.99
2022-10-04T06:41:13.020Z,99.99
2022-10-04T06:42:13.022Z,99.99
2022-10-04T06:43:13.078Z,99.99
2022-10-04T06:44:13.055Z,99.99
2022-10-04T06:45:13.028Z,99.99
2022-10-04T06:46:13.260Z,99.99
2022-10-04T06:47:13.047Z,99.99
2022-10-04T06:48:13.043Z,99.99
2022-10-04T06:49:13.028Z,99.99
2022-10-04T06:50:13.039Z,99.99
2022-10-04T06:51:13.035Z,99.99
2022-10-04T06:52:17.731Z,99.99
2022-10-04T06:53:13.089Z,99.99
2022-10-04T06:54:15.879Z,99.99
2022-10-04T06:55:13.082Z,99.99
2022-10-04T06:56:13.043Z,99.99
2022-10-04T06:57:13.050Z,99.99
2022-10-04T06:58:13.060Z,99.99
2022-10-04T06:59:13.044Z,99.99
2022-10-04T07:00:13.054Z,99.99
2022-10-04T07:01:13.164Z,99.99
2022-10-04T07:02:13.322Z,99.99
2022-10-04T07:03:13.073Z,99.99
2022-10-04T07:04:13.063Z,99.99
2022-10-04T07:05:15.877Z,99.99
2022-10-04T07:06:13.065Z,99.99
2022-10-04T07:07:13.064Z,99.99
2022-10-04T07:08:13.118Z,99.99
2022-10-04T07:09:13.091Z,99.99
2022-10-04T07:10:13.097Z,99.99
2022-10-04T07:11:17.573Z,99.99
2022-10-04T07:12:13.108Z,99.99
2022-10-04T07:13:13.096Z,99.99
2022-10-04T07:14:13.069Z,99.99
2022-10-04T07:15:13.071Z,99.99
2022-10-04T07:16:16.210Z,99.99
2022-10-04T07:17:13.070Z,99.99
2022-10-04T07:18:13.215Z,99.99
2022-10-04T07:19:13.075Z,99.99
2022-10-04T07:20:13.080Z,99.99
2022-10-04T07:21:13.084Z,99.99
2022-10-04T07:22:13.080Z,99.99
2022-10-04T07:23:13.098Z,99.99
2022-10-04T07:24:13.116Z,99.99
2022-10-04T07:25:13.090Z,99.99
2022-10-04T07:26:13.084Z,99.99
2022-10-04T07:27:15.955Z,99.99
2022-10-04T07:28:13.224Z,99.99
2022-10-04T07:29:13.093Z,99.99
2022-10-04T07:30:13.095Z,99.99
2022-10-04T07:31:13.263Z,99.99
2022-10-04T07:32:13.112Z,99.99
2022-10-04T07:33:13.117Z,99.99
2022-10-04T07:34:13.130Z,99.99
2022-10-04T07:35:13.102Z,99.99
2022-10-04T07:36:13.110Z,99.99
2022-10-04T07:37:13.128Z,99.99
2022-10-04T07:38:13.429Z,99.99
2022-10-04T07:39:13.107Z,99.99
2022-10-04T07:40:13.141Z,99.99
2022-10-04T07:41:13.102Z,99.99
2022-10-04T07:42:13.120Z,99.99
2022-10-04T07:43:13.154Z,99.99
2022-10-04T07:44:13.110Z,99.99
2022-10-04T07:45:13.122Z,99.99
2022-10-04T07:46:13.245Z,99.99
2022-10-04T07:47:13.135Z,99.99
2022-10-04T07:48:13.138Z,99.99
2022-10-04T07:49:16.155Z,99.99
2022-10-04T07:50:13.135Z,99.99
2022-10-04T07:51:13.132Z,99.99
2022-10-04T07:52:13.140Z,99.99
2022-10-04T07:53:13.165Z,99.99
2022-10-04T07:54:13.134Z,99.99
2022-10-04T07:55:13.137Z,99.99
2022-10-04T07:56:13.157Z,99.99
2022-10-04T07:57:13.145Z,99.99
2022-10-04T07:58:13.168Z,99.99
2022-10-04T07:59:13.137Z,99.99
2022-10-04T08:00:13.146Z,99.99
2022-10-04T08:01:13.144Z,99.99
2022-10-04T08:02:13.464Z,99.99
2022-10-04T08:03:13.334Z,99.99
2022-10-04T08:04:13.153Z,99.99
2022-10-04T08:05:13.173Z,99.99
2022-10-04T08:06:13.152Z,99.99
2022-10-04T08:07:13.155Z,99.99
2022-10-04T08:08:13.169Z,99.99
2022-10-04T08:09:13.160Z,99.99
2022-10-04T08:10:14.204Z,99.99
2022-10-04T08:11:13.160Z,99.99
2022-10-04T08:12:13.223Z,99.99
2022-10-04T08:13:13.190Z,99.99
2022-10-04T08:14:13.158Z,99.99
2022-10-04T08:15:13.166Z,99.99
2022-10-04T08:16:13.398Z,99.99
2022-10-04T08:17:17.891Z,99.99
2022-10-04T08:18:13.194Z,99.99
2022-10-04T08:19:13.175Z,99.99
2022-10-04T08:20:13.503Z,99.99
2022-10-04T08:21:13.199Z,99.99
2022-10-04T08:22:13.182Z,99.99
2022-10-04T08:23:13.223Z,99.99
2022-10-04T08:24:13.212Z,99.99
2022-10-04T08:25:13.192Z,99.99
2022-10-04T08:26:16.209Z,99.99
2022-10-04T08:27:13.180Z,99.99
2022-10-04T08:28:13.409Z,99.99
2022-10-04T08:29:13.191Z,99.99
2022-10-04T08:30:13.198Z,99.99
2022-10-04T08:31:13.325Z,99.99
2022-10-04T08:32:16.219Z,99.99
2022-10-04T08:33:13.226Z,99.99
2022-10-04T08:34:13.207Z,99.99
2022-10-04T08:35:13.207Z,99.99
2022-10-04T08:36:13.206Z,99.99
2022-10-04T08:37:13.251Z,99.99
2022-10-04T08:38:13.230Z,99.99
2022-10-04T08:39:13.202Z,99.99
2022-10-04T08:40:15.748Z,99.99
2022-10-04T08:41:13.217Z,99.99
2022-10-04T08:42:13.213Z,99.99
2022-10-04T08:43:16.029Z,99.99
2022-10-04T08:44:13.422Z,99.99
2022-10-04T08:45:13.235Z,99.99
2022-10-04T08:46:13.324Z,99.99
2022-10-04T08:47:13.217Z,99.99
2022-10-04T08:48:13.240Z,99.99
2022-10-04T08:49:13.223Z,99.99
2022-10-04T08:50:13.239Z,99.99
2022-10-04T08:51:15.974Z,99.99
2022-10-04T08:52:13.220Z,99.99
2022-10-04T08:53:13.612Z,99.99
2022-10-04T08:54:16.323Z,99.99
2022-10-04T08:55:13.230Z,99.99
2022-10-04T08:56:13.233Z,99.99
2022-10-04T08:57:18.207Z,99.99
2022-10-04T08:58:13.283Z,99.99
2022-10-04T08:59:13.235Z,99.99
2022-10-04T09:00:13.273Z,99.99
2022-10-04T09:01:13.361Z,99.99
2022-10-04T09:02:13.311Z,99.99
2022-10-04T09:03:13.100Z,99.99
2022-10-04T09:04:13.251Z,99.99
2022-10-04T09:05:13.244Z,99.99
2022-10-04T09:06:13.252Z,99.99
2022-10-04T09:07:13.254Z,99.99
2022-10-04T09:08:13.273Z,99.99
2022-10-04T09:09:13.280Z,99.99
2022-10-04T09:10:13.264Z,99.99
2022-10-04T09:11:13.256Z,99.99
2022-10-04T09:12:13.277Z,99.99
2022-10-04T09:13:13.295Z,99.99
2022-10-04T09:14:13.268Z,99.99
2022-10-04T09:15:13.267Z,99.99
2022-10-04T09:16:13.450Z,99.99
2022-10-04T09:17:13.268Z,99.99
2022-10-04T09:18:13.311Z,99.99
2022-10-04T09:19:13.279Z,99.99
2022-10-04T09:20:40.054Z,99.99
2022-10-04T09:21:16.465Z,99.99
2022-10-04T09:22:13.277Z,99.99
2022-10-04T09:23:13.384Z,99.99
2022-10-04T09:24:13.301Z,99.99
2022-10-04T09:25:14.405Z,99.99
2022-10-04T09:26:13.312Z,99.99
2022-10-04T09:27:13.299Z,99.99
2022-10-04T09:28:13.545Z,99.99
2022-10-04T09:29:13.327Z,99.99
2022-10-04T09:30:13.295Z,99.99
2022-10-04T09:31:13.424Z,99.99
2022-10-04T09:32:16.397Z,99.99
2022-10-04T09:33:13.309Z,99.99
2022-10-04T09:34:13.298Z,99.99
2022-10-04T09:35:13.319Z,99.99
2022-10-04T09:36:13.310Z,99.99
2022-10-04T09:37:13.300Z,99.99
2022-10-04T09:38:13.341Z,99.99
2022-10-04T09:39:32.344Z,99.99
2022-10-04T09:40:13.305Z,99.99
2022-10-04T09:41:13.349Z,99.99
2022-10-04T09:42:13.328Z,99.99
2022-10-04T09:43:14.729Z,99.99
2022-10-04T09:44:13.320Z,99.99
2022-10-04T09:45:13.315Z,99.99
2022-10-04T09:46:13.415Z,99.99
2022-10-04T09:47:13.324Z,99.99
2022-10-04T09:48:13.363Z,99.99
2022-10-04T09:49:13.335Z,99.99
2022-10-04T09:50:13.319Z,99.99
2022-10-04T09:51:13.327Z,99.99
2022-10-04T09:52:13.331Z,99.99
2022-10-04T09:53:13.352Z,99.99
2022-10-04T09:54:16.101Z,99.99
2022-10-04T09:55:13.332Z,99.99
2022-10-04T09:56:13.335Z,99.99
2022-10-04T09:57:13.434Z,99.99
2022-10-04T09:58:13.359Z,99.99
2022-10-04T09:59:13.337Z,99.99
2022-10-04T10:00:13.464Z,99.99
2022-10-04T10:01:13.381Z,99.99
2022-10-04T10:02:13.350Z,99.99
2022-10-04T10:03:18.162Z,99.99
2022-10-04T10:04:13.378Z,99.99
2022-10-04T10:05:16.131Z,99.73
2022-10-04T10:06:13.354Z,99.99
2022-10-04T10:07:16.367Z,99.99
2022-10-04T10:08:13.353Z,99.99
2022-10-04T10:09:13.353Z,99.99
2022-10-04T10:10:13.462Z,99.68
2022-10-04T10:11:13.366Z,99.99
2022-10-04T10:12:13.387Z,99.99
2022-10-04T10:13:13.385Z,99.4
2022-10-04T10:14:13.383Z,99.99
2022-10-04T10:15:13.366Z,99.49
2022-10-04T10:16:18.088Z,99.99
2022-10-04T10:17:13.376Z,99.68
2022-10-04T10:18:13.371Z,99.99
2022-10-04T10:19:13.386Z,99.99
2022-10-04T10:20:13.423Z,99.68
2022-10-04T10:21:13.377Z,99.59
2022-10-04T10:22:13.395Z,99.68
2022-10-04T10:23:13.382Z,99.78
2022-10-04T10:24:13.416Z,98.82
2022-10-04T10:25:13.389Z,99.4
2022-10-04T10:26:13.393Z,99.83
2022-10-04T10:27:13.391Z,99.3
2022-10-04T10:28:13.478Z,98.44
2022-10-04T10:29:13.441Z,97.62
2022-10-04T10:30:13.593Z,97.04
2022-10-04T10:31:13.538Z,96.17
2022-10-04T10:32:13.405Z,95.7
2022-10-04T10:33:13.400Z,95.26
2022-10-04T10:34:13.402Z,94.78
2022-10-04T10:35:13.426Z,94.68
2022-10-04T10:36:13.426Z,96.08
2022-10-04T10:37:13.408Z,95.55
2022-10-04T10:38:16.142Z,95.5
2022-10-04T10:39:13.410Z,94.73
2022-10-04T10:40:13.457Z,94.44
2022-10-04T10:41:13.414Z,94.82
2022-10-04T10:42:13.413Z,93.48
2022-10-04T10:43:13.419Z,93.96
2022-10-04T10:44:13.441Z,92.76
2022-10-04T10:45:13.447Z,92.71
2022-10-04T10:46:16.568Z,92.13
2022-10-04T10:47:13.432Z,92.03
2022-10-04T10:48:13.426Z,93.29
2022-10-04T10:49:13.427Z,92.8
2022-10-04T10:50:13.518Z,93.48
2022-10-04T10:51:13.431Z,91.84
2022-10-04T10:52:13.460Z,90.88
2022-10-04T10:53:13.446Z,90.69
2022-10-04T10:54:13.438Z,90.97
2022-10-04T10:55:13.446Z,90.4
2022-10-04T10:56:13.456Z,90.5
2022-10-04T10:57:13.439Z,90.2
2022-10-04T10:58:13.487Z,89.87
2022-10-04T10:59:14.562Z,89.53
2022-10-04T11:00:13.549Z,89.97
2022-10-04T11:01:13.505Z,89.63
2022-10-04T11:02:13.676Z,88.43
2022-10-04T11:03:19.423Z,88.62
2022-10-04T11:04:13.479Z,88.24
2022-10-04T11:05:13.455Z,89.2
2022-10-04T11:06:13.465Z,89.29
2022-10-04T11:07:13.474Z,90.55
2022-10-04T11:08:13.490Z,89.68
2022-10-04T11:09:13.506Z,90.06
2022-10-04T11:10:16.250Z,90.45
2022-10-04T11:11:13.492Z,90.06
2022-10-04T11:12:13.471Z,89.29
2022-10-04T11:13:13.470Z,89.1
2022-10-04T11:14:13.491Z,89.15
2022-10-04T11:15:13.471Z,88.71
2022-10-04T11:16:13.561Z,89.01
2022-10-04T11:17:13.505Z,89.64
2022-10-04T11:18:13.613Z,89.73
2022-10-04T11:19:13.506Z,90.02
2022-10-04T11:20:13.488Z,90.12
2022-10-04T11:21:16.489Z,90.5
2022-10-04T11:22:13.496Z,90.5
2022-10-04T11:23:13.485Z,89.64
2022-10-04T11:24:13.592Z,90.35
2022-10-04T11:25:13.497Z,90.55
2022-10-04T11:26:13.518Z,89.1
2022-10-04T11:27:13.498Z,87.37
2022-10-04T11:28:13.684Z,87.95
2022-10-04T11:29:13.513Z,87.95
2022-10-04T11:30:13.502Z,87.66
2022-10-04T11:31:13.687Z,87.99
2022-10-04T11:32:16.355Z,87.51
2022-10-04T11:33:13.511Z,87.46
2022-10-04T11:34:18.798Z,87.7
2022-10-04T11:35:13.514Z,86.07
2022-10-04T11:36:16.245Z,86.99
2022-10-04T11:37:13.515Z,87.7
2022-10-04T11:38:13.522Z,87.7
2022-10-04T11:39:13.577Z,87.99
2022-10-04T11:40:13.567Z,87.6
2022-10-04T11:41:13.526Z,88.38
2022-10-04T11:42:13.521Z,87.51
2022-10-04T11:43:13.549Z,87.7
2022-10-04T11:44:13.565Z,87.6
2022-10-04T11:45:13.541Z,86.78
2022-10-04T11:46:13.824Z,87.65
2022-10-04T11:47:13.666Z,87.65
2022-10-04T11:48:16.705Z,86.63
2022-10-04T11:49:13.552Z,85.96
2022-10-04T11:50:13.559Z,85.96
2022-10-04T11:51:13.553Z,85.96
2022-10-04T11:52:13.541Z,85.67
2022-10-04T11:53:13.544Z,85.86
2022-10-04T11:54:13.582Z,85.57
2022-10-04T11:55:13.549Z,85.43
2022-10-04T11:56:13.572Z,85.63
2022-10-04T11:57:13.561Z,85.91
2022-10-04T11:58:14.562Z,85.14
2022-10-04T11:59:14.786Z,84.86
2022-10-04T12:00:13.562Z,84.56
2022-10-04T12:01:13.560Z,85.47
2022-10-04T12:02:13.561Z,85.19
2022-10-04T12:03:13.937Z,85.14
2022-10-04T12:04:14.066Z,85.47
2022-10-04T12:05:13.567Z,84.03
2022-10-04T12:06:13.566Z,83.84
2022-10-04T12:07:13.578Z,84.22
2022-10-04T12:08:13.596Z,83.94
2022-10-04T12:09:13.593Z,84.61
2022-10-04T12:10:14.724Z,84.42
2022-10-04T12:11:13.617Z,84.8
2022-10-04T12:12:13.603Z,84.03
2022-10-04T12:13:13.579Z,83.94
2022-10-04T12:14:13.598Z,84.07
2022-10-04T12:15:13.582Z,83.26
2022-10-04T12:16:13.758Z,82.97
2022-10-04T12:17:16.565Z,83.3
2022-10-04T12:18:13.589Z,83.69
2022-10-04T12:19:13.668Z,82.62
2022-10-04T12:20:14.624Z,83.2
2022-10-04T12:21:16.706Z,83.2
2022-10-04T12:22:13.598Z,83.2
2022-10-04T12:23:13.619Z,83.3
2022-10-04T12:24:13.623Z,83.5
2022-10-04T12:25:13.606Z,82.72
2022-10-04T12:26:19.329Z,83.36
2022-10-04T12:27:13.637Z,84.03
2022-10-04T12:28:14.023Z,85.47
2022-10-04T12:29:13.642Z,84.75
2022-10-04T12:30:13.615Z,84.03
2022-10-04T12:31:13.706Z,83.64
2022-10-04T12:32:16.417Z,83.07
2022-10-04T12:33:13.647Z,82.68
2022-10-04T12:34:13.640Z,83.3
2022-10-04T12:35:13.661Z,83.2
2022-10-04T12:36:13.722Z,84.36
2022-10-04T12:37:16.106Z,83.63
2022-10-04T12:38:13.622Z,83.2
2022-10-04T12:39:13.640Z,84.07
2022-10-04T12:40:13.642Z,83.34
2022-10-04T12:41:13.710Z,82.67
2022-10-04T12:42:13.634Z,82.53
2022-10-04T12:43:16.396Z,82.53
2022-10-04T12:44:13.678Z,82.53
2022-10-04T12:45:13.640Z,82.76
2022-10-04T12:46:13.919Z,82.18
2022-10-04T12:47:13.648Z,82.76
2022-10-04T12:48:13.664Z,82.96
2022-10-04T12:49:13.666Z,82.28
2022-10-04T12:50:13.647Z,81.51
2022-10-04T12:51:13.649Z,81.6
2022-10-04T12:52:13.991Z,81.7
2022-10-04T12:53:13.664Z,81.51